sensor_id;sensor_type;location;lat;lon;timestamp;pressure;altitude;pressure_sealevel;temperature;humidity
63691;BME280;49837;57.280;27.070;2024-02-28T00:00:08;100525.42;;;0.93;100.0
63691;BME280;49837;57.280;27.070;2024-02-28T00:01:07;100520.86;;;0.95;100.0
63691;BME280;49837;57.280;27.070;2024-02-28T00:02:08;100521.85;;;0.95;100.0
63691;BME280;49837;57.280;27.070;2024-02-28T00:03:08;100525.55;;;0.95;100.0
63691;BME280;49837;57.280;27.070;2024-02-28T00:04:08;100521.48;;;0.93;100.0
63691;BME280;49837;57.280;27.070;2024-02-28T00:05:08;100524.02;;;0.91;100.0
63691;BME280;49837;57.280;27.070;2024-02-28T00:06:09;100519.44;;;0.92;100.0
63691;BME280;49837;57.280;27.070;2024-02-28T00:07:09;100518.2;;;0.93;100.0
63691;BME280;49837;57.280;27.070;2024-02-28T00:08:10;100520.47;;;0.95;100.0
63691;BME280;49837;57.280;27.070;2024-02-28T00:09:11;100515.28;;;0.96;100.0
63691;BME280;49837;57.280;27.070;2024-02-28T00:10:10;100516.59;;;0.95;100.0
63691;BME280;49837;57.280;27.070;2024-02-28T00:11:11;100513.3;;;0.94;100.0
63691;BME280;49837;57.280;27.070;2024-02-28T00:12:11;100513.33;;;0.91;100.0
63691;BME280;49837;57.280;27.070;2024-02-28T00:13:11;100513.37;;;0.87;100.0
63691;BME280;49837;57.280;27.070;2024-02-28T00:14:12;100508.13;;;0.85;100.0
63691;BME280;49837;57.280;27.070;2024-02-28T00:15:12;100510.69;;;0.84;100.0
63691;BME280;49837;57.280;27.070;2024-02-28T00:16:13;100510.7;;;0.85;100.0
63691;BME280;49837;57.280;27.070;2024-02-28T00:17:13;100507.8;;;0.88;100.0
63691;BME280;49837;57.280;27.070;2024-02-28T00:18:13;100506.52;;;0.87;100.0
63691;BME280;49837;57.280;27.070;2024-02-28T00:19:14;100510.33;;;0.78;100.0
63691;BME280;49837;57.280;27.070;2024-02-28T00:20:14;100510.84;;;0.63;100.0
63691;BME280;49837;57.280;27.070;2024-02-28T00:21:14;100510.9;;;0.61;100.0
63691;BME280;49837;57.280;27.070;2024-02-28T00:22:15;100516.78;;;0.6;100.0
63691;BME280;49837;57.280;27.070;2024-02-28T00:23:15;100514.02;;;0.62;100.0
63691;BME280;49837;57.280;27.070;2024-02-28T00:24:16;100519.48;;;0.64;100.0
63691;BME280;49837;57.280;27.070;2024-02-28T00:25:16;100519.28;;;0.68;100.0
63691;BME280;49837;57.280;27.070;2024-02-28T00:26:17;100522.41;;;0.73;100.0
63691;BME280;49837;57.280;27.070;2024-02-28T00:27:17;100520.39;;;0.75;100.0
63691;BME280;49837;57.280;27.070;2024-02-28T00:28:17;100520.75;;;0.77;100.0
63691;BME280;49837;57.280;27.070;2024-02-28T00:29:18;100517.91;;;0.79;100.0
63691;BME280;49837;57.280;27.070;2024-02-28T00:30:18;100516.06;;;0.75;100.0
63691;BME280;49837;57.280;27.070;2024-02-28T00:31:18;100517.8;;;0.71;100.0
63691;BME280;49837;57.280;27.070;2024-02-28T00:32:19;100519.33;;;0.71;100.0
63691;BME280;49837;57.280;27.070;2024-02-28T00:33:19;100523.66;;;0.68;100.0
63691;BME280;49837;57.280;27.070;2024-02-28T00:34:20;100526.5;;;0.66;100.0
63691;BME280;49837;57.280;27.070;2024-02-28T00:35:20;100528.22;;;0.66;100.0
63691;BME280;49837;57.280;27.070;2024-02-28T00:36:20;100527.16;;;0.68;100.0
63691;BME280;49837;57.280;27.070;2024-02-28T00:37:21;100528.59;;;0.7;100.0
63691;BME280;49837;57.280;27.070;2024-02-28T00:38:21;100529.64;;;0.72;100.0
63691;BME280;49837;57.280;27.070;2024-02-28T00:39:21;100530.36;;;0.71;100.0
63691;BME280;49837;57.280;27.070;2024-02-28T00:40:22;100531.59;;;0.71;100.0
63691;BME280;49837;57.280;27.070;2024-02-28T00:41:22;100528.95;;;0.72;100.0
63691;BME280;49837;57.280;27.070;2024-02-28T00:42:22;100530.94;;;0.66;100.0
63691;BME280;49837;57.280;27.070;2024-02-28T00:43:23;100531.41;;;0.61;100.0
63691;BME280;49837;57.280;27.070;2024-02-28T00:44:23;100531.99;;;0.52;100.0
63691;BME280;49837;57.280;27.070;2024-02-28T00:45:23;100528.11;;;0.54;100.0
63691;BME280;49837;57.280;27.070;2024-02-28T00:46:24;100527.84;;;0.59;100.0
63691;BME280;49837;57.280;27.070;2024-02-28T00:47:24;100524.97;;;0.63;100.0
63691;BME280;49837;57.280;27.070;2024-02-28T00:48:25;100521.49;;;0.66;100.0
63691;BME280;49837;57.280;27.070;2024-02-28T00:49:25;100524.52;;;0.66;100.0
63691;BME280;49837;57.280;27.070;2024-02-28T00:50:25;100522.59;;;0.68;100.0
63691;BME280;49837;57.280;27.070;2024-02-28T00:51:26;100527.34;;;0.69;100.0
63691;BME280;49837;57.280;27.070;2024-02-28T00:52:26;100525.92;;;0.66;100.0
63691;BME280;49837;57.280;27.070;2024-02-28T00:53:26;100527.91;;;0.67;100.0
63691;BME280;49837;57.280;27.070;2024-02-28T00:54:27;100528.77;;;0.69;100.0
63691;BME280;49837;57.280;27.070;2024-02-28T00:55:27;100531.27;;;0.71;100.0
63691;BME280;49837;57.280;27.070;2024-02-28T00:56:27;100527.56;;;0.72;100.0
63691;BME280;49837;57.280;27.070;2024-02-28T00:57:28;100531.12;;;0.72;100.0
63691;BME280;49837;57.280;27.070;2024-02-28T00:58:28;100526.76;;;0.73;100.0
63691;BME280;49837;57.280;27.070;2024-02-28T00:59:28;100530.98;;;0.71;100.0
63691;BME280;49837;57.280;27.070;2024-02-28T01:00:29;100530.44;;;0.71;100.0
63691;BME280;49837;57.280;27.070;2024-02-28T01:01:29;100531.74;;;0.67;100.0
63691;BME280;49837;57.280;27.070;2024-02-28T01:02:30;100530.62;;;0.63;100.0
63691;BME280;49837;57.280;27.070;2024-02-28T01:03:30;100526.2;;;0.59;100.0
63691;BME280;49837;57.280;27.070;2024-02-28T01:04:30;100527.86;;;0.58;100.0
63691;BME280;49837;57.280;27.070;2024-02-28T01:05:31;100525.38;;;0.54;100.0
63691;BME280;49837;57.280;27.070;2024-02-28T01:06:31;100524.53;;;0.56;100.0
63691;BME280;49837;57.280;27.070;2024-02-28T01:07:31;100522.44;;;0.53;100.0
63691;BME280;49837;57.280;27.070;2024-02-28T01:08:32;100527.02;;;0.54;100.0
63691;BME280;49837;57.280;27.070;2024-02-28T01:09:32;100530.08;;;0.54;100.0
63691;BME280;49837;57.280;27.070;2024-02-28T01:10:33;100532.14;;;0.6;100.0
63691;BME280;49837;57.280;27.070;2024-02-28T01:11:33;100529.05;;;0.66;100.0
63691;BME280;49837;57.280;27.070;2024-02-28T01:12:33;100530.37;;;0.68;100.0
63691;BME280;49837;57.280;27.070;2024-02-28T01:13:33;100528.44;;;0.64;100.0
63691;BME280;49837;57.280;27.070;2024-02-28T01:14:34;100531.27;;;0.66;100.0
63691;BME280;49837;57.280;27.070;2024-02-28T01:15:34;100534.92;;;0.6;100.0
63691;BME280;49837;57.280;27.070;2024-02-28T01:16:35;100529.2;;;0.57;100.0
63691;BME280;49837;57.280;27.070;2024-02-28T01:17:35;100528.72;;;0.57;100.0
63691;BME280;49837;57.280;27.070;2024-02-28T01:18:36;100531.16;;;0.56;100.0
63691;BME280;49837;57.280;27.070;2024-02-28T01:19:36;100527.98;;;0.57;100.0
63691;BME280;49837;57.280;27.070;2024-02-28T01:20:36;100527.27;;;0.63;100.0
63691;BME280;49837;57.280;27.070;2024-02-28T01:21:38;100522.06;;;0.61;100.0
63691;BME280;49837;57.280;27.070;2024-02-28T01:22:37;100521.1;;;0.58;100.0
63691;BME280;49837;57.280;27.070;2024-02-28T01:23:37;100522.89;;;0.51;100.0
63691;BME280;49837;57.280;27.070;2024-02-28T01:24:37;100519.45;;;0.47;100.0
63691;BME280;49837;57.280;27.070;2024-02-28T01:25:38;100520.06;;;0.43;100.0
63691;BME280;49837;57.280;27.070;2024-02-28T01:26:38;100520.67;;;0.42;100.0
63691;BME280;49837;57.280;27.070;2024-02-28T01:27:38;100518.71;;;0.41;100.0
63691;BME280;49837;57.280;27.070;2024-02-28T01:28:39;100525.74;;;0.41;100.0
63691;BME280;49837;57.280;27.070;2024-02-28T01:29:39;100526.97;;;0.41;100.0
63691;BME280;49837;57.280;27.070;2024-02-28T01:30:40;100528.14;;;0.42;100.0
63691;BME280;49837;57.280;27.070;2024-02-28T01:31:40;100520.45;;;0.39;100.0
63691;BME280;49837;57.280;27.070;2024-02-28T01:32:40;100523.22;;;0.42;100.0
63691;BME280;49837;57.280;27.070;2024-02-28T01:33:41;100518.29;;;0.42;100.0
63691;BME280;49837;57.280;27.070;2024-02-28T01:34:41;100519.16;;;0.44;100.0
63691;BME280;49837;57.280;27.070;2024-02-28T01:35:41;100515.62;;;0.4;100.0
63691;BME280;49837;57.280;27.070;2024-02-28T01:36:42;100517.01;;;0.39;100.0
63691;BME280;49837;57.280;27.070;2024-02-28T01:37:42;100514.41;;;0.39;100.0
63691;BME280;49837;57.280;27.070;2024-02-28T01:38:42;100515.58;;;0.36;100.0
63691;BME280;49837;57.280;27.070;2024-02-28T01:39:43;100511.4;;;0.42;100.0
63691;BME280;49837;57.280;27.070;2024-02-28T01:40:46;100516.86;;;0.44;100.0
63691;BME280;49837;57.280;27.070;2024-02-28T01:41:53;100514.89;;;0.44;100.0
63691;BME280;49837;57.280;27.070;2024-02-28T01:42:46;100512.88;;;0.42;100.0
63691;BME280;49837;57.280;27.070;2024-02-28T01:43:46;100515.45;;;0.44;100.0
63691;BME280;49837;57.280;27.070;2024-02-28T01:44:48;100511.17;;;0.47;100.0
63691;BME280;49837;57.280;27.070;2024-02-28T01:45:47;100507.56;;;0.48;100.0
63691;BME280;49837;57.280;27.070;2024-02-28T01:46:47;100511.66;;;0.41;100.0
63691;BME280;49837;57.280;27.070;2024-02-28T01:47:52;100510.11;;;0.39;100.0
63691;BME280;49837;57.280;27.070;2024-02-28T01:48:49;100508.22;;;0.43;100.0
63691;BME280;49837;57.280;27.070;2024-02-28T01:49:50;100506.14;;;0.37;100.0
63691;BME280;49837;57.280;27.070;2024-02-28T01:50:50;100503.77;;;0.32;100.0
63691;BME280;49837;57.280;27.070;2024-02-28T01:51:51;100505.3;;;0.26;100.0
63691;BME280;49837;57.280;27.070;2024-02-28T01:52:51;100505.05;;;0.25;100.0
63691;BME280;49837;57.280;27.070;2024-02-28T01:53:52;100509.52;;;0.28;100.0
63691;BME280;49837;57.280;27.070;2024-02-28T01:54:51;100512.58;;;0.33;100.0
63691;BME280;49837;57.280;27.070;2024-02-28T01:55:52;100509.62;;;0.35;100.0
63691;BME280;49837;57.280;27.070;2024-02-28T01:56:52;100510.19;;;0.39;100.0
63691;BME280;49837;57.280;27.070;2024-02-28T01:57:53;100512.51;;;0.43;100.0
63691;BME280;49837;57.280;27.070;2024-02-28T01:58:54;100506.5;;;0.48;100.0
63691;BME280;49837;57.280;27.070;2024-02-28T01:59:53;100511.82;;;0.53;100.0
63691;BME280;49837;57.280;27.070;2024-02-28T02:00:53;100507.08;;;0.48;100.0
63691;BME280;49837;57.280;27.070;2024-02-28T02:01:54;100507.73;;;0.48;100.0
63691;BME280;49837;57.280;27.070;2024-02-28T02:02:54;100507.17;;;0.49;100.0
63691;BME280;49837;57.280;27.070;2024-02-28T02:03:55;100507.11;;;0.5;100.0
63691;BME280;49837;57.280;27.070;2024-02-28T02:04:55;100512.55;;;0.51;100.0
63691;BME280;49837;57.280;27.070;2024-02-28T02:05:55;100510.86;;;0.53;100.0
63691;BME280;49837;57.280;27.070;2024-02-28T02:06:56;100510.97;;;0.56;100.0
63691;BME280;49837;57.280;27.070;2024-02-28T02:08:00;100509.44;;;0.56;100.0
63691;BME280;49837;57.280;27.070;2024-02-28T02:08:58;100505.55;;;0.56;100.0
63691;BME280;49837;57.280;27.070;2024-02-28T02:09:58;100510.59;;;0.53;100.0
63691;BME280;49837;57.280;27.070;2024-02-28T02:10:59;100505.34;;;0.49;100.0
63691;BME280;49837;57.280;27.070;2024-02-28T02:11:59;100509.15;;;0.49;100.0
63691;BME280;49837;57.280;27.070;2024-02-28T02:13:08;100515.16;;;0.5;100.0
63691;BME280;49837;57.280;27.070;2024-02-28T02:14:01;100513.57;;;0.5;100.0
63691;BME280;49837;57.280;27.070;2024-02-28T02:15:01;100510.78;;;0.5;100.0
63691;BME280;49837;57.280;27.070;2024-02-28T02:16:02;100509.67;;;0.51;100.0
63691;BME280;49837;57.280;27.070;2024-02-28T02:17:02;100507.7;;;0.51;100.0
63691;BME280;49837;57.280;27.070;2024-02-28T02:18:03;100507.09;;;0.55;100.0
63691;BME280;49837;57.280;27.070;2024-02-28T02:19:03;100505.33;;;0.56;100.0
63691;BME280;49837;57.280;27.070;2024-02-28T02:20:04;100504.61;;;0.58;100.0
63691;BME280;49837;57.280;27.070;2024-02-28T02:21:06;100499.82;;;0.57;100.0
63691;BME280;49837;57.280;27.070;2024-02-28T02:22:05;100495.72;;;0.57;100.0
63691;BME280;49837;57.280;27.070;2024-02-28T02:23:05;100497.34;;;0.56;100.0
63691;BME280;49837;57.280;27.070;2024-02-28T02:24:06;100494.31;;;0.5;100.0
63691;BME280;49837;57.280;27.070;2024-02-28T02:25:06;100492.8;;;0.39;100.0
63691;BME280;49837;57.280;27.070;2024-02-28T02:26:06;100490.5;;;0.33;100.0
63691;BME280;49837;57.280;27.070;2024-02-28T02:27:06;100493.66;;;0.37;100.0
63691;BME280;49837;57.280;27.070;2024-02-28T02:28:07;100491.47;;;0.38;100.0
63691;BME280;49837;57.280;27.070;2024-02-28T02:29:07;100489.13;;;0.39;100.0
63691;BME280;49837;57.280;27.070;2024-02-28T02:30:08;100488.17;;;0.42;100.0
63691;BME280;49837;57.280;27.070;2024-02-28T02:31:08;100493.27;;;0.41;100.0
63691;BME280;49837;57.280;27.070;2024-02-28T02:32:08;100491.69;;;0.41;100.0
63691;BME280;49837;57.280;27.070;2024-02-28T02:33:08;100496.9;;;0.42;100.0
63691;BME280;49837;57.280;27.070;2024-02-28T02:34:09;100496.69;;;0.45;100.0
63691;BME280;49837;57.280;27.070;2024-02-28T02:35:09;100495.86;;;0.45;100.0
63691;BME280;49837;57.280;27.070;2024-02-28T02:36:09;100500.95;;;0.41;100.0
63691;BME280;49837;57.280;27.070;2024-02-28T02:37:10;100500.44;;;0.44;100.0
63691;BME280;49837;57.280;27.070;2024-02-28T02:38:10;100503.03;;;0.51;100.0
63691;BME280;49837;57.280;27.070;2024-02-28T02:39:11;100505.03;;;0.54;100.0
63691;BME280;49837;57.280;27.070;2024-02-28T02:40:12;100504.4;;;0.56;100.0
63691;BME280;49837;57.280;27.070;2024-02-28T02:41:11;100509.94;;;0.58;100.0
63691;BME280;49837;57.280;27.070;2024-02-28T02:42:11;100514.05;;;0.58;100.0
63691;BME280;49837;57.280;27.070;2024-02-28T02:43:12;100519.3;;;0.58;100.0
63691;BME280;49837;57.280;27.070;2024-02-28T02:44:12;100510.73;;;0.57;100.0
63691;BME280;49837;57.280;27.070;2024-02-28T02:45:13;100512.35;;;0.54;100.0
63691;BME280;49837;57.280;27.070;2024-02-28T02:46:13;100510.83;;;0.53;100.0
63691;BME280;49837;57.280;27.070;2024-02-28T02:47:13;100514.7;;;0.53;100.0
63691;BME280;49837;57.280;27.070;2024-02-28T02:48:14;100517.61;;;0.54;100.0
63691;BME280;49837;57.280;27.070;2024-02-28T02:49:14;100514.95;;;0.54;100.0
63691;BME280;49837;57.280;27.070;2024-02-28T02:50:14;100511.11;;;0.5;100.0
63691;BME280;49837;57.280;27.070;2024-02-28T02:51:15;100515.38;;;0.4;100.0
63691;BME280;49837;57.280;27.070;2024-02-28T02:52:15;100512.97;;;0.38;100.0
63691;BME280;49837;57.280;27.070;2024-02-28T02:53:15;100509.44;;;0.38;100.0
63691;BME280;49837;57.280;27.070;2024-02-28T02:54:16;100508.43;;;0.31;100.0
63691;BME280;49837;57.280;27.070;2024-02-28T02:55:16;100506.59;;;0.29;100.0
63691;BME280;49837;57.280;27.070;2024-02-28T02:56:17;100509.87;;;0.29;100.0
63691;BME280;49837;57.280;27.070;2024-02-28T02:57:17;100506.78;;;0.3;100.0
63691;BME280;49837;57.280;27.070;2024-02-28T02:58:17;100505.82;;;0.32;100.0
63691;BME280;49837;57.280;27.070;2024-02-28T02:59:18;100505.11;;;0.33;100.0
63691;BME280;49837;57.280;27.070;2024-02-28T03:00:18;100507.77;;;0.36;100.0
63691;BME280;49837;57.280;27.070;2024-02-28T03:01:18;100504.66;;;0.37;100.0
63691;BME280;49837;57.280;27.070;2024-02-28T03:02:19;100504.94;;;0.33;100.0
63691;BME280;49837;57.280;27.070;2024-02-28T03:03:19;100506.67;;;0.33;100.0
63691;BME280;49837;57.280;27.070;2024-02-28T03:04:19;100502.52;;;0.41;100.0
63691;BME280;49837;57.280;27.070;2024-02-28T03:05:20;100503.48;;;0.44;100.0
63691;BME280;49837;57.280;27.070;2024-02-28T03:06:20;100506.12;;;0.41;100.0
63691;BME280;49837;57.280;27.070;2024-02-28T03:07:20;100500.88;;;0.35;100.0
63691;BME280;49837;57.280;27.070;2024-02-28T03:08:21;100496.16;;;0.33;100.0
63691;BME280;49837;57.280;27.070;2024-02-28T03:09:21;100496.02;;;0.31;100.0
63691;BME280;49837;57.280;27.070;2024-02-28T03:10:21;100492.69;;;0.27;100.0
63691;BME280;49837;57.280;27.070;2024-02-28T03:11:22;100490.69;;;0.25;100.0
63691;BME280;49837;57.280;27.070;2024-02-28T03:12:22;100490.36;;;0.25;100.0
63691;BME280;49837;57.280;27.070;2024-02-28T03:13:23;100490.88;;;0.27;100.0
63691;BME280;49837;57.280;27.070;2024-02-28T03:14:23;100497.26;;;0.3;100.0
63691;BME280;49837;57.280;27.070;2024-02-28T03:15:23;100500.9;;;0.32;100.0
63691;BME280;49837;57.280;27.070;2024-02-28T03:16:24;100501.98;;;0.34;100.0
63691;BME280;49837;57.280;27.070;2024-02-28T03:17:24;100499.95;;;0.35;100.0
63691;BME280;49837;57.280;27.070;2024-02-28T03:18:24;100501.98;;;0.38;100.0
63691;BME280;49837;57.280;27.070;2024-02-28T03:19:25;100499.2;;;0.39;100.0
63691;BME280;49837;57.280;27.070;2024-02-28T03:20:25;100502.14;;;0.43;100.0
63691;BME280;49837;57.280;27.070;2024-02-28T03:21:25;100500.53;;;0.43;100.0
63691;BME280;49837;57.280;27.070;2024-02-28T03:22:26;100497.63;;;0.43;100.0
63691;BME280;49837;57.280;27.070;2024-02-28T03:23:26;100496.41;;;0.39;100.0
63691;BME280;49837;57.280;27.070;2024-02-28T03:24:27;100495.11;;;0.35;100.0
63691;BME280;49837;57.280;27.070;2024-02-28T03:25:27;100492.5;;;0.36;100.0
63691;BME280;49837;57.280;27.070;2024-02-28T03:26:27;100487.3;;;0.33;100.0
63691;BME280;49837;57.280;27.070;2024-02-28T03:27:28;100484.8;;;0.37;100.0
63691;BME280;49837;57.280;27.070;2024-02-28T03:28:28;100484.58;;;0.32;100.0
63691;BME280;49837;57.280;27.070;2024-02-28T03:29:28;100485.08;;;0.28;100.0
63691;BME280;49837;57.280;27.070;2024-02-28T03:30:29;100483.77;;;0.28;100.0
63691;BME280;49837;57.280;27.070;2024-02-28T03:31:29;100485.85;;;0.3;100.0
63691;BME280;49837;57.280;27.070;2024-02-28T03:32:29;100493.61;;;0.34;100.0
63691;BME280;49837;57.280;27.070;2024-02-28T03:33:30;100494.78;;;0.34;100.0
63691;BME280;49837;57.280;27.070;2024-02-28T03:34:30;100495.45;;;0.36;100.0
63691;BME280;49837;57.280;27.070;2024-02-28T03:35:30;100498.45;;;0.43;100.0
63691;BME280;49837;57.280;27.070;2024-02-28T03:36:31;100494.55;;;0.45;100.0
63691;BME280;49837;57.280;27.070;2024-02-28T03:37:31;100492.94;;;0.47;100.0
63691;BME280;49837;57.280;27.070;2024-02-28T03:38:31;100489.24;;;0.51;100.0
63691;BME280;49837;57.280;27.070;2024-02-28T03:39:32;100492.25;;;0.56;100.0
63691;BME280;49837;57.280;27.070;2024-02-28T03:40:32;100492.95;;;0.58;100.0
63691;BME280;49837;57.280;27.070;2024-02-28T03:41:33;100497.11;;;0.61;100.0
63691;BME280;49837;57.280;27.070;2024-02-28T03:42:33;100492.31;;;0.59;100.0
63691;BME280;49837;57.280;27.070;2024-02-28T03:43:33;100493.78;;;0.54;100.0
63691;BME280;49837;57.280;27.070;2024-02-28T03:44:34;100494.34;;;0.47;100.0
63691;BME280;49837;57.280;27.070;2024-02-28T03:45:37;100493.78;;;0.44;100.0
63691;BME280;49837;57.280;27.070;2024-02-28T03:46:35;100495.31;;;0.48;100.0
63691;BME280;49837;57.280;27.070;2024-02-28T03:47:35;100495.06;;;0.51;100.0
63691;BME280;49837;57.280;27.070;2024-02-28T03:48:35;100492.45;;;0.47;100.0
63691;BME280;49837;57.280;27.070;2024-02-28T03:49:36;100488.33;;;0.4;100.0
63691;BME280;49837;57.280;27.070;2024-02-28T03:50:36;100486.42;;;0.4;100.0
63691;BME280;49837;57.280;27.070;2024-02-28T03:51:42;100491.42;;;0.44;100.0
63691;BME280;49837;57.280;27.070;2024-02-28T03:52:41;100493.39;;;0.45;100.0
63691;BME280;49837;57.280;27.070;2024-02-28T03:53:41;100493.81;;;0.45;100.0
63691;BME280;49837;57.280;27.070;2024-02-28T03:54:44;100495.05;;;0.45;100.0
63691;BME280;49837;57.280;27.070;2024-02-28T03:55:42;100496.45;;;0.47;100.0
63691;BME280;49837;57.280;27.070;2024-02-28T03:56:42;100497.66;;;0.49;100.0
63691;BME280;49837;57.280;27.070;2024-02-28T03:57:47;100502.84;;;0.41;100.0
63691;BME280;49837;57.280;27.070;2024-02-28T03:58:44;100504.41;;;0.41;100.0
63691;BME280;49837;57.280;27.070;2024-02-28T03:59:45;100501.58;;;0.43;100.0
63691;BME280;49837;57.280;27.070;2024-02-28T04:00:45;100514.02;;;0.46;100.0
63691;BME280;49837;57.280;27.070;2024-02-28T04:01:45;100515.14;;;0.49;100.0
63691;BME280;49837;57.280;27.070;2024-02-28T04:02:45;100512.3;;;0.51;100.0
63691;BME280;49837;57.280;27.070;2024-02-28T04:03:46;100514.76;;;0.57;100.0
63691;BME280;49837;57.280;27.070;2024-02-28T04:04:46;100513.39;;;0.57;100.0
63691;BME280;49837;57.280;27.070;2024-02-28T04:05:47;100515.03;;;0.57;100.0
63691;BME280;49837;57.280;27.070;2024-02-28T04:06:47;100517.94;;;0.6;100.0
63691;BME280;49837;57.280;27.070;2024-02-28T04:07:47;100515.38;;;0.59;100.0
63691;BME280;49837;57.280;27.070;2024-02-28T04:08:48;100522.34;;;0.58;100.0
63691;BME280;49837;57.280;27.070;2024-02-28T04:09:48;100519.09;;;0.54;100.0
63691;BME280;49837;57.280;27.070;2024-02-28T04:10:48;100518.09;;;0.55;100.0
63691;BME280;49837;57.280;27.070;2024-02-28T04:11:49;100517.06;;;0.57;100.0
63691;BME280;49837;57.280;27.070;2024-02-28T04:12:49;100516.92;;;0.54;100.0
63691;BME280;49837;57.280;27.070;2024-02-28T04:13:49;100510.25;;;0.56;100.0
63691;BME280;49837;57.280;27.070;2024-02-28T04:14:50;100505.5;;;0.58;100.0
63691;BME280;49837;57.280;27.070;2024-02-28T04:15:51;100504.06;;;0.59;100.0
63691;BME280;49837;57.280;27.070;2024-02-28T04:16:50;100503.08;;;0.54;100.0
63691;BME280;49837;57.280;27.070;2024-02-28T04:17:51;100501.32;;;0.52;100.0
63691;BME280;49837;57.280;27.070;2024-02-28T04:18:51;100500.3;;;0.51;100.0
63691;BME280;49837;57.280;27.070;2024-02-28T04:19:52;100502.81;;;0.53;100.0
63691;BME280;49837;57.280;27.070;2024-02-28T04:20:52;100507.53;;;0.57;100.0
63691;BME280;49837;57.280;27.070;2024-02-28T04:21:52;100509.34;;;0.62;100.0
63691;BME280;49837;57.280;27.070;2024-02-28T04:22:53;100508.55;;;0.63;100.0
63691;BME280;49837;57.280;27.070;2024-02-28T04:23:53;100511.62;;;0.59;100.0
63691;BME280;49837;57.280;27.070;2024-02-28T04:24:53;100514.77;;;0.58;100.0
63691;BME280;49837;57.280;27.070;2024-02-28T04:25:54;100520.45;;;0.63;100.0
63691;BME280;49837;57.280;27.070;2024-02-28T04:26:54;100513.5;;;0.64;100.0
63691;BME280;49837;57.280;27.070;2024-02-28T04:27:54;100517.95;;;0.61;100.0
63691;BME280;49837;57.280;27.070;2024-02-28T04:28:55;100513.81;;;0.59;100.0
63691;BME280;49837;57.280;27.070;2024-02-28T04:29:55;100513.19;;;0.61;100.0
63691;BME280;49837;57.280;27.070;2024-02-28T04:30:55;100515.27;;;0.62;100.0
63691;BME280;49837;57.280;27.070;2024-02-28T04:31:56;100513.09;;;0.6;100.0
63691;BME280;49837;57.280;27.070;2024-02-28T04:32:56;100512.73;;;0.58;100.0
63691;BME280;49837;57.280;27.070;2024-02-28T04:33:57;100516.91;;;0.58;100.0
63691;BME280;49837;57.280;27.070;2024-02-28T04:34:57;100515.5;;;0.57;100.0
63691;BME280;49837;57.280;27.070;2024-02-28T04:35:57;100514.72;;;0.59;100.0
63691;BME280;49837;57.280;27.070;2024-02-28T04:36:58;100513.85;;;0.61;100.0
63691;BME280;49837;57.280;27.070;2024-02-28T04:37:58;100513.13;;;0.62;100.0
63691;BME280;49837;57.280;27.070;2024-02-28T04:38:58;100509.25;;;0.61;100.0
63691;BME280;49837;57.280;27.070;2024-02-28T04:39:59;100514.41;;;0.6;100.0
63691;BME280;49837;57.280;27.070;2024-02-28T04:40:59;100514.16;;;0.6;100.0
63691;BME280;49837;57.280;27.070;2024-02-28T04:41:59;100514.84;;;0.61;100.0
63691;BME280;49837;57.280;27.070;2024-02-28T04:43:00;100515.88;;;0.6;100.0
63691;BME280;49837;57.280;27.070;2024-02-28T04:44:00;100516.38;;;0.59;100.0
63691;BME280;49837;57.280;27.070;2024-02-28T04:45:00;100513.83;;;0.6;100.0
63691;BME280;49837;57.280;27.070;2024-02-28T04:46:02;100514.27;;;0.61;100.0
63691;BME280;49837;57.280;27.070;2024-02-28T04:47:01;100514.38;;;0.63;100.0
63691;BME280;49837;57.280;27.070;2024-02-28T04:48:01;100514.5;;;0.61;100.0
63691;BME280;49837;57.280;27.070;2024-02-28T04:49:02;100518.35;;;0.59;100.0
63691;BME280;49837;57.280;27.070;2024-02-28T04:50:03;100519.22;;;0.63;100.0
63691;BME280;49837;57.280;27.070;2024-02-28T04:51:03;100517.16;;;0.62;100.0
63691;BME280;49837;57.280;27.070;2024-02-28T04:52:03;100518.07;;;0.63;100.0
63691;BME280;49837;57.280;27.070;2024-02-28T04:53:04;100519.77;;;0.61;100.0
63691;BME280;49837;57.280;27.070;2024-02-28T04:54:04;100520.3;;;0.59;100.0
63691;BME280;49837;57.280;27.070;2024-02-28T04:55:05;100518.3;;;0.53;100.0
63691;BME280;49837;57.280;27.070;2024-02-28T04:56:05;100519.52;;;0.52;100.0
63691;BME280;49837;57.280;27.070;2024-02-28T04:57:05;100518.95;;;0.51;100.0
63691;BME280;49837;57.280;27.070;2024-02-28T04:58:05;100518.75;;;0.54;100.0
63691;BME280;49837;57.280;27.070;2024-02-28T04:59:05;100520.03;;;0.58;100.0
63691;BME280;49837;57.280;27.070;2024-02-28T05:00:07;100517.73;;;0.58;100.0
63691;BME280;49837;57.280;27.070;2024-02-28T05:01:06;100517.3;;;0.61;100.0
63691;BME280;49837;57.280;27.070;2024-02-28T05:02:06;100519.21;;;0.58;100.0
63691;BME280;49837;57.280;27.070;2024-02-28T05:03:07;100516.96;;;0.56;100.0
63691;BME280;49837;57.280;27.070;2024-02-28T05:04:08;100519.25;;;0.6;100.0
63691;BME280;49837;57.280;27.070;2024-02-28T05:05:08;100514.75;;;0.66;100.0
63691;BME280;49837;57.280;27.070;2024-02-28T05:06:08;100520.42;;;0.66;100.0
63691;BME280;49837;57.280;27.070;2024-02-28T05:07:08;100517.59;;;0.64;100.0
63691;BME280;49837;57.280;27.070;2024-02-28T05:08:09;100519.78;;;0.62;100.0
63691;BME280;49837;57.280;27.070;2024-02-28T05:09:09;100519.41;;;0.64;100.0
63691;BME280;49837;57.280;27.070;2024-02-28T05:10:10;100519.73;;;0.64;100.0
63691;BME280;49837;57.280;27.070;2024-02-28T05:11:10;100521.09;;;0.62;100.0
63691;BME280;49837;57.280;27.070;2024-02-28T05:12:10;100520.97;;;0.6;100.0
63691;BME280;49837;57.280;27.070;2024-02-28T05:13:10;100523.8;;;0.58;100.0
63691;BME280;49837;57.280;27.070;2024-02-28T05:14:11;100524.28;;;0.55;100.0
63691;BME280;49837;57.280;27.070;2024-02-28T05:15:11;100521.3;;;0.51;100.0
63691;BME280;49837;57.280;27.070;2024-02-28T05:16:15;100520.91;;;0.47;100.0